createdAt,value
2023-05-25T00:02:24.753Z,100501.19
2023-05-25T00:04:54.323Z,100500.22
2023-05-25T00:07:22.279Z,100500.94
2023-05-25T00:09:50.236Z,100498.44
2023-05-25T00:12:18.266Z,100498.19
2023-05-25T00:14:46.672Z,100488.06
2023-05-25T00:17:15.539Z,100497.94
2023-05-25T00:19:44.242Z,100498.75
2023-05-25T00:22:13.648Z,100496.66
2023-05-25T00:24:41.682Z,100504.25
2023-05-25T00:27:09.828Z,100499.53
2023-05-25T00:29:37.842Z,100498.75
2023-05-25T00:32:06.708Z,100503.38
2023-05-25T00:34:34.690Z,100502.03
2023-05-25T00:37:02.670Z,100503.91
2023-05-25T00:39:32.018Z,100512.50
2023-05-25T00:42:00.893Z,100511.09
2023-05-25T00:44:29.190Z,100507.09
2023-05-25T00:46:57.120Z,100511.16
2023-05-25T00:49:25.115Z,100512.53
2023-05-25T00:51:54.219Z,100506.84
2023-05-25T00:54:22.586Z,100512.66
2023-05-25T00:56:57.108Z,100511.88
2023-05-25T00:59:31.095Z,100509.38
2023-05-25T01:02:00.863Z,100508.25
2023-05-25T01:04:29.945Z,100508.28
2023-05-25T01:06:59.769Z,100510.50
2023-05-25T01:09:30.211Z,100507.69
2023-05-25T01:12:01.393Z,100513.09
2023-05-25T01:14:29.952Z,100493.34
2023-05-25T01:16:59.052Z,100508.13
2023-05-25T01:19:27.138Z,100510.94
2023-05-25T01:22:05.038Z,100500.44
2023-05-25T01:24:40.961Z,100501.13
2023-05-25T01:27:13.932Z,100497.31
2023-05-25T01:29:45.327Z,100505.63
2023-05-25T01:32:14.706Z,100500.63
2023-05-25T01:34:45.172Z,100508.72
2023-05-25T01:37:14.842Z,100500.84
2023-05-25T01:39:42.784Z,100505.69
2023-05-25T01:42:11.018Z,100511.28
2023-05-25T01:44:40.336Z,100500.91
2023-05-25T01:47:24.760Z,100510.16
2023-05-25T01:50:01.300Z,100508.75
2023-05-25T01:52:37.214Z,100513.25
2023-05-25T01:55:09.272Z,100510.16
2023-05-25T01:57:39.740Z,100501.63
2023-05-25T02:00:10.910Z,100495.72
2023-05-25T02:02:41.806Z,100498.53
2023-05-25T02:05:11.262Z,100499.75
2023-05-25T02:07:40.798Z,100501.28
2023-05-25T02:10:09.649Z,100491.09
2023-05-25T02:12:37.637Z,100502.81
2023-05-25T02:15:06.399Z,100501.28
2023-05-25T02:17:37.242Z,100509.84
2023-05-25T02:20:06.432Z,100497.25
2023-05-25T02:22:34.406Z,100500.94
2023-05-25T02:25:03.782Z,100504.63
2023-05-25T02:27:31.805Z,100505.25
2023-05-25T02:29:59.728Z,100509.44
2023-05-25T02:32:29.600Z,100503.84
2023-05-25T02:34:57.634Z,100513.69
2023-05-25T02:37:25.601Z,100515.25
2023-05-25T02:39:53.586Z,100524.16
2023-05-25T02:42:22.927Z,100516.44
2023-05-25T02:44:50.854Z,100520.25
2023-05-25T02:47:19.258Z,100525.25
2023-05-25T02:49:47.389Z,100532.13
2023-05-25T02:52:15.323Z,100539.03
2023-05-25T02:54:43.269Z,100549.50
2023-05-25T02:57:11.371Z,100547.56
2023-05-25T02:59:40.983Z,100553.78
2023-05-25T03:02:09.052Z,100545.81
2023-05-25T03:04:38.977Z,100548.53
2023-05-25T03:07:06.971Z,100552.78
2023-05-25T03:09:34.957Z,100556.72
2023-05-25T03:12:03.031Z,100559.13
2023-05-25T03:14:31.188Z,100555.16
2023-05-25T03:17:00.911Z,100551.28
2023-05-25T03:19:28.902Z,100546.63
2023-05-25T03:21:56.837Z,100545.56
2023-05-25T03:24:24.798Z,100553.50
2023-05-25T03:26:52.773Z,100553.03
2023-05-25T03:29:20.786Z,100548.47
2023-05-25T03:31:48.792Z,100558.47
2023-05-25T03:34:18.133Z,100559.63
2023-05-25T03:36:47.706Z,100562.72
2023-05-25T03:39:15.681Z,100560.56
2023-05-25T03:41:44.317Z,100563.16
2023-05-25T03:44:12.293Z,100549.31
2023-05-25T03:46:40.258Z,100557.81
2023-05-25T03:49:09.137Z,100557.94
2023-05-25T03:51:38.457Z,100560.75
2023-05-25T03:54:06.614Z,100563.00
2023-05-25T03:56:34.537Z,100563.19
2023-05-25T03:59:02.497Z,100562.69
2023-05-25T04:01:30.499Z,100560.25
2023-05-25T04:03:58.925Z,100562.34
2023-05-25T04:06:27.087Z,100563.75
2023-05-25T04:08:57.959Z,100574.19
2023-05-25T04:11:27.655Z,100567.78
2023-05-25T04:13:55.663Z,100581.59
2023-05-25T04:16:23.720Z,100575.31
2023-05-25T04:18:51.674Z,100575.41
2023-05-25T04:21:19.681Z,100581.28
2023-05-25T04:23:47.600Z,100593.06
2023-05-25T04:26:17.177Z,100582.88
2023-05-25T04:28:46.069Z,100592.03
2023-05-25T04:31:14.086Z,100596.72
2023-05-25T04:33:42.068Z,100597.59
2023-05-25T04:36:11.094Z,100577.69
2023-05-25T04:38:39.103Z,100604.34
2023-05-25T04:41:07.085Z,100602.41
2023-05-25T04:43:36.427Z,100609.31
2023-05-25T04:46:07.968Z,100617.88
2023-05-25T04:48:39.163Z,100620.06
2023-05-25T04:51:07.636Z,100613.09
2023-05-25T04:53:36.423Z,100616.28
2023-05-25T04:56:05.025Z,100622.38
2023-05-25T04:58:33.524Z,100622.28
2023-05-25T05:01:02.961Z,100626.16
2023-05-25T05:03:31.054Z,100621.47
2023-05-25T05:05:59.038Z,100628.88
2023-05-25T05:08:26.992Z,100624.72
2023-05-25T05:10:54.926Z,100626.78
2023-05-25T05:13:22.860Z,100626.91
2023-05-25T05:15:50.789Z,100631.78
2023-05-25T05:18:20.121Z,100629.75
2023-05-25T05:20:48.085Z,100631.09
2023-05-25T05:23:16.092Z,100629.94
2023-05-25T05:25:44.395Z,100643.63
2023-05-25T05:28:12.487Z,100636.25
2023-05-25T05:30:41.056Z,100636.25
2023-05-25T05:33:09.121Z,100641.72
2023-05-25T05:35:38.501Z,100637.75
2023-05-25T05:38:07.396Z,100646.34
2023-05-25T05:40:35.323Z,100645.97
2023-05-25T05:43:03.329Z,100651.69
2023-05-25T05:45:31.260Z,100654.78
2023-05-25T05:47:59.248Z,100658.13
2023-05-25T05:50:27.259Z,100665.94
2023-05-25T05:52:56.593Z,100665.88
2023-05-25T05:55:24.749Z,100672.81
2023-05-25T05:57:52.689Z,100652.38
2023-05-25T06:00:21.627Z,100665.34
2023-05-25T06:02:49.765Z,100671.31
2023-05-25T06:05:18.320Z,100671.69
2023-05-25T06:07:46.434Z,100669.84
2023-05-25T06:10:15.807Z,100669.34
2023-05-25T06:12:43.765Z,100677.47
2023-05-25T06:15:12.762Z,100675.31
2023-05-25T06:17:41.963Z,100673.47
2023-05-25T06:20:11.029Z,100679.09
2023-05-25T06:22:39.023Z,100675.78
2023-05-25T06:25:10.358Z,100678.56
2023-05-25T06:27:39.795Z,100680.09
2023-05-25T06:30:09.116Z,100684.72
2023-05-25T06:32:37.145Z,100681.41
2023-05-25T06:35:05.488Z,100682.44
2023-05-25T06:37:35.388Z,100683.22
2023-05-25T06:40:03.531Z,100682.03
2023-05-25T06:42:31.543Z,100699.63
2023-05-25T06:45:00.917Z,100706.06
2023-05-25T06:47:31.094Z,100708.97
2023-05-25T06:49:59.237Z,100700.50
2023-05-25T06:52:28.287Z,100708.97
2023-05-25T06:54:56.619Z,100694.72
2023-05-25T06:57:24.708Z,100700.94
2023-05-25T06:59:52.706Z,100690.66
2023-05-25T07:02:22.132Z,100693.88
2023-05-25T07:04:50.109Z,100695.44
2023-05-25T07:07:18.112Z,100693.72
2023-05-25T07:09:46.315Z,100698.22
2023-05-25T07:12:14.718Z,100697.50
2023-05-25T07:14:42.701Z,100699.69
2023-05-25T07:17:12.521Z,100696.28
2023-05-25T07:19:43.318Z,100685.81
2023-05-25T07:22:11.472Z,100691.03
2023-05-25T07:24:39.500Z,100696.91
2023-05-25T07:27:08.317Z,100688.16
2023-05-25T07:29:36.301Z,100692.06
2023-05-25T07:32:04.385Z,100693.00
2023-05-25T07:34:32.368Z,100691.75
2023-05-25T07:37:01.750Z,100692.59
2023-05-25T07:39:29.764Z,100687.22
2023-05-25T07:41:57.740Z,100689.41
2023-05-25T07:44:25.709Z,100689.00
2023-05-25T07:46:53.709Z,100693.34
2023-05-25T07:49:21.798Z,100690.34
2023-05-25T07:51:49.794Z,100684.94
2023-05-25T07:54:19.139Z,100687.97
2023-05-25T07:56:47.306Z,100687.66
2023-05-25T07:59:15.373Z,100682.97
2023-05-25T08:01:43.375Z,100680.63
2023-05-25T08:04:11.361Z,100690.66
2023-05-25T08:06:39.348Z,100684.84
2023-05-25T08:09:08.180Z,100693.69
2023-05-25T08:11:37.591Z,100691.06
2023-05-25T08:14:05.552Z,100693.91
2023-05-25T08:16:33.525Z,100688.28
2023-05-25T08:19:01.952Z,100678.59
2023-05-25T08:21:29.915Z,100691.47
2023-05-25T08:23:57.851Z,100688.03
2023-05-25T08:26:38.395Z,100689.91
2023-05-25T08:29:15.124Z,100694.38
2023-05-25T08:31:43.976Z,100689.03
2023-05-25T08:34:12.338Z,100692.31
2023-05-25T08:36:40.289Z,100681.94
2023-05-25T08:39:09.354Z,100687.50
2023-05-25T08:41:38.114Z,100683.53
2023-05-25T08:44:08.217Z,100682.50
2023-05-25T08:46:37.991Z,100689.91
2023-05-25T08:49:07.774Z,100674.00
2023-05-25T08:51:38.240Z,100677.06
2023-05-25T08:54:10.202Z,100676.50
2023-05-25T08:56:43.295Z,100671.91
2023-05-25T08:59:30.062Z,100663.13
2023-05-25T09:02:09.388Z,100668.00
2023-05-25T09:04:37.917Z,100675.34
2023-05-25T09:07:10.805Z,100672.75
2023-05-25T09:09:41.239Z,100667.59
2023-05-25T09:12:10.162Z,100662.91
2023-05-25T09:14:39.893Z,100662.19
2023-05-25T09:17:09.235Z,100663.34
2023-05-25T09:19:37.735Z,100659.91
2023-05-25T09:22:15.593Z,100656.59
2023-05-25T09:24:45.623Z,100655.38
2023-05-25T09:27:14.817Z,100655.38
2023-05-25T09:29:42.774Z,100651.34
2023-05-25T09:32:12.501Z,100648.75
2023-05-25T09:34:40.471Z,100647.16
2023-05-25T09:37:13.938Z,100642.03
2023-05-25T09:39:42.774Z,100638.59
2023-05-25T09:42:10.965Z,100641.53
2023-05-25T09:44:39.502Z,100638.00
2023-05-25T09:47:08.227Z,100640.28
2023-05-25T09:49:38.711Z,100631.19
2023-05-25T09:52:07.759Z,100627.94
2023-05-25T09:54:37.610Z,100627.94
2023-05-25T09:57:06.419Z,100623.22
2023-05-25T09:59:34.469Z,100622.81
2023-05-25T10:02:02.918Z,100616.66
2023-05-25T10:04:31.028Z,100620.56
2023-05-25T10:07:02.072Z,100617.91
2023-05-25T10:09:30.889Z,100606.78
2023-05-25T10:12:01.416Z,100621.38
2023-05-25T10:14:31.234Z,100604.94
2023-05-25T10:17:00.890Z,100598.56
2023-05-25T10:19:34.741Z,100596.25
2023-05-25T10:22:09.933Z,100594.03
2023-05-25T10:24:44.881Z,100585.59
2023-05-25T10:29:53.886Z,100574.09
2023-05-25T10:32:22.093Z,100573.63
2023-05-25T10:34:53.493Z,100573.78
2023-05-25T10:37:26.985Z,100560.06
2023-05-25T10:39:56.639Z,100572.41
2023-05-25T10:42:24.748Z,100569.91
2023-05-25T10:44:53.306Z,100571.53
2023-05-25T10:47:22.310Z,100560.09
2023-05-25T10:49:55.294Z,100564.94
2023-05-25T10:52:28.974Z,100563.00
2023-05-25T10:54:58.037Z,100554.97
2023-05-25T10:57:26.810Z,100552.50
2023-05-25T11:00:00.035Z,100549.84
2023-05-25T11:02:29.535Z,100555.19
2023-05-25T11:05:35.749Z,100555.13
2023-05-25T11:08:08.536Z,100546.16
2023-05-25T11:10:44.131Z,100551.50
2023-05-25T11:13:33.934Z,100548.94
2023-05-25T11:16:36.325Z,100529.69
2023-05-25T11:19:04.870Z,100531.78
2023-05-25T11:21:43.882Z,100518.63
2023-05-25T11:24:18.726Z,100541.66
2023-05-25T11:26:57.961Z,100535.28
2023-05-25T11:29:27.440Z,100536.03
2023-05-25T11:31:56.751Z,100535.00
2023-05-25T11:34:26.012Z,100501.50
2023-05-25T11:37:01.748Z,100518.47
2023-05-25T11:39:32.069Z,100516.38
2023-05-25T11:42:06.987Z,100518.97
2023-05-25T11:44:36.914Z,100506.50
2023-05-25T11:47:10.208Z,100503.38
2023-05-25T11:49:41.965Z,100503.19
2023-05-25T11:52:10.559Z,100509.09
2023-05-25T11:54:41.694Z,100503.66
2023-05-25T11:57:16.131Z,100501.16
2023-05-25T11:59:49.945Z,100497.59
2023-05-25T12:02:18.088Z,100496.44
2023-05-25T12:04:55.198Z,100447.19
2023-05-25T12:07:23.502Z,100494.03
2023-05-25T12:09:53.070Z,100495.88
2023-05-25T12:12:21.371Z,100498.94
2023-05-25T12:14:49.912Z,100487.06
2023-05-25T12:17:19.597Z,100483.38
2023-05-25T12:19:47.795Z,100476.78
2023-05-25T12:22:16.501Z,100472.09
2023-05-25T12:24:44.596Z,100480.09
2023-05-25T12:27:21.163Z,100478.44
2023-05-25T12:29:49.862Z,100477.81
2023-05-25T12:32:17.952Z,100478.03
2023-05-25T12:34:46.597Z,100469.81
2023-05-25T12:37:21.905Z,100471.88
2023-05-25T12:39:50.841Z,100480.91
2023-05-25T12:42:20.417Z,100470.66
2023-05-25T12:44:48.403Z,100476.63
2023-05-25T12:47:19.947Z,100476.34
2023-05-25T12:49:51.442Z,100476.25
2023-05-25T12:52:35.937Z,100474.56
2023-05-25T12:55:25.968Z,100475.06
2023-05-25T12:57:56.058Z,100463.16
2023-05-25T13:00:25.684Z,100483.09
2023-05-25T13:02:54.870Z,100493.00
2023-05-25T13:05:25.110Z,100479.03
2023-05-25T13:07:54.728Z,100488.69
2023-05-25T13:10:23.621Z,100492.34
2023-05-25T13:12:53.912Z,100502.94
2023-05-25T13:15:23.409Z,100511.53
2023-05-25T13:17:52.383Z,100509.78
2023-05-25T13:20:22.140Z,100499.59
2023-05-25T13:22:51.805Z,100486.13
2023-05-25T13:25:22.298Z,100486.84
2023-05-25T13:27:52.823Z,100522.25
2023-05-25T13:30:22.294Z,100529.22
2023-05-25T13:32:52.810Z,100526.94
2023-05-25T13:35:34.229Z,100526.94
2023-05-25T13:38:02.260Z,100527.75
2023-05-25T13:40:30.352Z,100527.97
2023-05-25T13:42:58.324Z,100543.75
2023-05-25T13:45:26.281Z,100523.84
2023-05-25T13:47:55.816Z,100529.84
2023-05-25T13:50:23.839Z,100534.13
2023-05-25T13:52:51.862Z,100510.06
2023-05-25T13:55:19.883Z,100516.84
2023-05-25T13:57:47.876Z,100515.41
2023-05-25T14:00:16.396Z,100505.63
2023-05-25T14:02:44.413Z,100504.38
2023-05-25T14:05:13.791Z,100504.88
2023-05-25T14:07:42.185Z,100499.47
2023-05-25T14:10:10.959Z,100498.84
2023-05-25T14:12:38.981Z,100496.59
2023-05-25T14:15:07.940Z,100500.69
2023-05-25T14:17:36.014Z,100496.16
2023-05-25T14:20:04.409Z,100489.09
2023-05-25T14:22:34.254Z,100507.69
2023-05-25T14:25:02.226Z,100514.88
2023-05-25T14:27:30.186Z,100503.94
2023-05-25T14:29:58.160Z,100520.53
2023-05-25T14:32:26.192Z,100522.63
2023-05-25T14:34:54.157Z,100527.22
2023-05-25T14:37:22.149Z,100515.00
2023-05-25T14:39:51.514Z,100528.25
2023-05-25T14:42:19.546Z,100540.28
2023-05-25T14:44:47.508Z,100567.59
2023-05-25T14:47:15.587Z,100599.00
2023-05-25T14:49:43.805Z,100611.25
2023-05-25T14:52:11.846Z,100618.84
2023-05-25T14:54:44.817Z,100609.25
2023-05-25T14:57:16.305Z,100618.06
2023-05-25T14:59:44.377Z,100600.19
2023-05-25T15:02:12.469Z,100586.75
2023-05-25T15:04:40.511Z,100591.78
2023-05-25T15:07:08.843Z,100604.19
2023-05-25T15:09:37.715Z,100601.88
2023-05-25T15:12:06.609Z,100598.09
2023-05-25T15:14:39.916Z,100589.22
2023-05-25T15:17:08.133Z,100580.53
2023-05-25T15:19:36.778Z,100581.34
2023-05-25T15:22:05.023Z,100574.25
2023-05-25T15:24:33.024Z,100566.00
2023-05-25T15:27:01.559Z,100588.97
2023-05-25T15:29:30.634Z,100584.66
2023-05-25T15:31:59.976Z,100587.50
2023-05-25T15:34:27.988Z,100586.81
2023-05-25T15:36:55.941Z,100582.19
2023-05-25T15:39:23.876Z,100575.41
2023-05-25T15:41:51.835Z,100572.28
2023-05-25T15:44:19.957Z,100584.50
2023-05-25T15:46:48.034Z,100566.63
2023-05-25T15:49:17.401Z,100588.44
2023-05-25T15:51:45.384Z,100595.59
2023-05-25T15:54:14.825Z,100581.03
2023-05-25T15:56:43.068Z,100583.34
2023-05-25T15:59:12.339Z,100586.78
2023-05-25T16:01:40.725Z,100591.09
2023-05-25T16:04:09.214Z,100592.28
2023-05-25T16:06:38.656Z,100586.63
2023-05-25T16:09:06.777Z,100587.28
2023-05-25T16:11:34.790Z,100585.03
2023-05-25T16:14:02.828Z,100579.06
2023-05-25T16:16:30.818Z,100580.69
2023-05-25T16:18:58.950Z,100572.94
2023-05-25T16:21:27.139Z,100571.44
2023-05-25T16:23:56.478Z,100576.88
2023-05-25T16:26:24.422Z,100587.97
2023-05-25T16:28:52.404Z,100587.97
2023-05-25T16:31:20.379Z,100593.41
2023-05-25T16:33:48.649Z,100584.53
2023-05-25T16:36:17.198Z,100569.13
2023-05-25T16:38:45.967Z,100583.84
2023-05-25T16:41:15.612Z,100586.31
2023-05-25T16:43:43.580Z,100584.47
2023-05-25T16:46:11.639Z,100585.31
2023-05-25T16:48:39.626Z,100578.22
2023-05-25T16:51:08.317Z,100579.38
2023-05-25T16:53:36.234Z,100570.44
2023-05-25T16:56:04.212Z,100574.25
2023-05-25T16:58:33.566Z,100576.38
2023-05-25T17:01:01.556Z,100576.56
2023-05-25T17:03:29.682Z,100574.75
2023-05-25T17:05:57.797Z,100571.75
2023-05-25T17:08:25.757Z,100567.47
2023-05-25T17:10:53.726Z,100583.69
2023-05-25T17:13:22.188Z,100581.34
2023-05-25T17:15:51.610Z,100584.16
2023-05-25T17:18:19.621Z,100588.25
2023-05-25T17:20:47.595Z,100578.84
2023-05-25T17:23:16.852Z,100581.31
2023-05-25T17:25:45.209Z,100574.19
2023-05-25T17:28:13.284Z,100581.31
2023-05-25T17:30:41.209Z,100591.88
2023-05-25T17:33:10.612Z,100583.22
2023-05-25T17:35:38.619Z,100584.34
2023-05-25T17:38:06.591Z,100578.25
2023-05-25T17:40:34.685Z,100576.72
2023-05-25T17:43:02.647Z,100585.97
2023-05-25T17:45:30.596Z,100587.28
2023-05-25T17:47:58.922Z,100580.00
2023-05-25T17:50:28.840Z,100576.69
2023-05-25T17:52:56.847Z,100587.00
2023-05-25T17:55:24.895Z,100583.19
2023-05-25T17:57:52.825Z,100582.63
2023-05-25T18:00:23.132Z,100584.91
2023-05-25T18:02:52.092Z,100574.53
2023-05-25T18:05:20.285Z,100577.44
2023-05-25T18:07:49.636Z,100582.13
2023-05-25T18:10:17.631Z,100575.75
2023-05-25T18:12:46.325Z,100585.94
2023-05-25T18:15:14.293Z,100585.38
2023-05-25T18:17:42.396Z,100593.28
2023-05-25T18:20:11.404Z,100576.91
2023-05-25T18:22:39.433Z,100593.25
2023-05-25T18:25:09.590Z,100600.94
2023-05-25T18:27:37.554Z,100602.63
2023-05-25T18:30:06.311Z,100599.75
2023-05-25T18:32:34.296Z,100607.72
2023-05-25T18:35:02.312Z,100610.97
2023-05-25T18:37:34.266Z,100617.28
2023-05-25T18:40:02.308Z,100619.28
2023-05-25T18:42:31.632Z,100621.50
2023-05-25T18:44:59.610Z,100622.38
2023-05-25T18:47:27.744Z,100631.13
2023-05-25T18:49:55.829Z,100631.56
2023-05-25T18:52:23.851Z,100637.13
2023-05-25T18:54:51.807Z,100630.09
2023-05-25T18:57:19.864Z,100649.22
2023-05-25T18:59:49.195Z,100653.00
2023-05-25T19:02:17.203Z,100652.44
2023-05-25T19:04:45.168Z,100651.75
2023-05-25T19:07:13.180Z,100656.03
2023-05-25T19:09:42.312Z,100662.97
2023-05-25T19:12:10.459Z,100659.38
2023-05-25T19:14:38.447Z,100661.31
2023-05-25T19:17:08.587Z,100668.78
2023-05-25T19:19:36.535Z,100672.13
2023-05-25T19:22:04.496Z,100665.06
2023-05-25T19:24:32.416Z,100658.56
2023-05-25T19:27:01.420Z,100665.91
2023-05-25T19:29:29.410Z,100653.16
2023-05-25T19:31:57.366Z,100658.59
2023-05-25T19:34:26.987Z,100658.28
2023-05-25T19:37:10.239Z,100666.19
2023-05-25T19:39:39.165Z,100669.13
2023-05-25T19:42:07.346Z,100657.47
2023-05-25T19:44:35.298Z,100665.78
2023-05-25T19:47:03.291Z,100659.69
2023-05-25T19:49:32.652Z,100668.28
2023-05-25T19:52:00.594Z,100666.34
2023-05-25T19:54:28.542Z,100674.38
2023-05-25T19:56:56.541Z,100674.22
2023-05-25T19:59:27.998Z,100667.16
2023-05-25T20:01:56.298Z,100673.56
2023-05-25T20:04:24.526Z,100664.00
2023-05-25T20:06:55.250Z,100666.91
2023-05-25T20:09:30.061Z,100680.63
2023-05-25T20:11:58.991Z,100680.75
2023-05-25T20:14:27.195Z,100685.44
2023-05-25T20:16:56.127Z,100668.84
2023-05-25T20:19:24.254Z,100689.03
2023-05-25T20:21:52.650Z,100686.69
2023-05-25T20:24:22.227Z,100675.19
2023-05-25T20:26:51.035Z,100666.09
2023-05-25T20:29:18.964Z,100673.28
2023-05-25T20:31:47.047Z,100669.25
2023-05-25T20:34:15.050Z,100664.81
2023-05-25T20:36:42.987Z,100665.94
2023-05-25T20:39:11.086Z,100669.25
2023-05-25T20:41:40.527Z,100679.09
2023-05-25T20:44:08.989Z,100689.88
2023-05-25T20:46:37.101Z,100692.94
2023-05-25T20:49:05.133Z,100693.75
2023-05-25T20:51:33.585Z,100710.91
2023-05-25T20:54:01.539Z,100714.09
2023-05-25T20:56:29.561Z,100710.06
2023-05-25T20:58:58.909Z,100717.84
2023-05-25T21:01:26.945Z,100720.91
2023-05-25T21:03:55.050Z,100731.41
2023-05-25T21:06:23.321Z,100780.81
2023-05-25T21:08:52.261Z,100784.78
2023-05-25T21:11:20.309Z,100755.00
2023-05-25T21:13:48.609Z,100775.63
2023-05-25T21:16:18.149Z,100794.50
2023-05-25T21:18:46.166Z,100782.19
2023-05-25T21:21:15.851Z,100773.97
2023-05-25T21:23:43.821Z,100779.09
2023-05-25T21:26:11.865Z,100786.81
2023-05-25T21:28:39.867Z,100783.63
2023-05-25T21:31:07.875Z,100778.31
2023-05-25T21:33:37.790Z,100768.72
2023-05-25T21:36:05.867Z,100757.00
2023-05-25T21:38:33.817Z,100755.00
2023-05-25T21:41:01.866Z,100745.13
2023-05-25T21:43:29.820Z,100744.38
2023-05-25T21:45:57.852Z,100745.78
2023-05-25T21:48:25.979Z,100742.72
2023-05-25T21:50:55.606Z,100738.28
2023-05-25T21:53:23.597Z,100737.75
2023-05-25T21:55:52.958Z,100736.81
2023-05-25T21:58:21.285Z,100723.94
2023-05-25T22:00:49.583Z,100715.78
2023-05-25T22:03:17.639Z,100713.97
2023-05-25T22:05:45.830Z,100711.03
2023-05-25T22:08:15.330Z,100704.00
2023-05-25T22:10:43.327Z,100687.09
2023-05-25T22:13:11.272Z,100695.97
2023-05-25T22:15:39.315Z,100688.22
2023-05-25T22:18:07.363Z,100696.94
2023-05-25T22:20:38.570Z,100700.00
2023-05-25T22:23:06.742Z,100686.00
2023-05-25T22:25:36.045Z,100695.84
2023-05-25T22:28:04.002Z,100683.78
2023-05-25T22:30:32.007Z,100684.34
2023-05-25T22:33:00.114Z,100679.63
2023-05-25T22:35:28.123Z,100676.88
2023-05-25T22:37:56.121Z,100657.50
2023-05-25T22:40:24.141Z,100676.28
2023-05-25T22:42:53.455Z,100669.94
2023-05-25T22:45:22.474Z,100667.75
2023-05-25T22:47:50.508Z,100667.44
2023-05-25T22:50:18.713Z,100662.50
2023-05-25T22:52:46.673Z,100661.91
2023-05-25T22:55:14.679Z,100669.53
2023-05-25T22:57:42.606Z,100654.72
2023-05-25T23:00:13.079Z,100659.44
2023-05-25T23:02:41.205Z,100646.84
2023-05-25T23:05:10.204Z,100654.31
2023-05-25T23:07:38.184Z,100656.09
2023-05-25T23:10:07.219Z,100640.63
2023-05-25T23:12:35.176Z,100649.47
2023-05-25T23:15:03.319Z,100640.06
2023-05-25T23:17:32.775Z,100628.72
2023-05-25T23:20:01.984Z,100641.47
2023-05-25T23:22:29.993Z,100655.41
2023-05-25T23:24:57.937Z,100646.25
2023-05-25T23:27:25.971Z,100649.75
2023-05-25T23:29:53.942Z,100644.63
2023-05-25T23:32:22.250Z,100654.72
2023-05-25T23:34:51.632Z,100648.78
2023-05-25T23:37:19.548Z,100642.81
2023-05-25T23:39:47.524Z,100643.88
2023-05-25T23:42:16.881Z,100657.16
2023-05-25T23:44:44.857Z,100664.63
2023-05-25T23:47:12.917Z,100652.19
2023-05-25T23:49:40.899Z,100651.38
2023-05-25T23:52:10.296Z,100656.88
2023-05-25T23:54:38.292Z,100652.84
2023-05-25T23:57:06.773Z,100648.41
2023-05-25T23:59:34.715Z,100657.13
